sensor_id;sensor_type;location;lat;lon;timestamp;P1;durP1;ratioP1;P2;durP2;ratioP2
84329;SDS011;74510;42.676;23.432;2024-01-25T00:00:37;30.35;;;16.75;;
84329;SDS011;74510;42.676;23.432;2024-01-25T00:03:03;24.73;;;12.07;;
84329;SDS011;74510;42.676;23.432;2024-01-25T00:05:29;21.55;;;12.65;;
84329;SDS011;74510;42.676;23.432;2024-01-25T00:07:54;30.92;;;16.33;;
84329;SDS011;74510;42.676;23.432;2024-01-25T00:10:20;19.00;;;12.40;;
84329;SDS011;74510;42.676;23.432;2024-01-25T00:12:46;21.95;;;11.10;;
84329;SDS011;74510;42.676;23.432;2024-01-25T00:15:14;22.45;;;10.60;;
84329;SDS011;74510;42.676;23.432;2024-01-25T00:17:40;16.45;;;7.75;;
84329;SDS011;74510;42.676;23.432;2024-01-25T00:20:06;18.67;;;9.60;;
84329;SDS011;74510;42.676;23.432;2024-01-25T00:22:34;18.85;;;9.75;;
84329;SDS011;74510;42.676;23.432;2024-01-25T00:24:59;20.73;;;10.10;;
84329;SDS011;74510;42.676;23.432;2024-01-25T00:27:25;18.63;;;9.73;;
84329;SDS011;74510;42.676;23.432;2024-01-25T00:29:50;16.75;;;7.72;;
84329;SDS011;74510;42.676;23.432;2024-01-25T00:32:16;16.98;;;8.23;;
84329;SDS011;74510;42.676;23.432;2024-01-25T00:34:41;14.57;;;9.57;;
84329;SDS011;74510;42.676;23.432;2024-01-25T00:37:07;16.10;;;9.00;;
84329;SDS011;74510;42.676;23.432;2024-01-25T00:39:33;13.45;;;8.05;;
84329;SDS011;74510;42.676;23.432;2024-01-25T00:42:02;17.67;;;10.40;;
84329;SDS011;74510;42.676;23.432;2024-01-25T00:44:30;16.25;;;9.57;;
84329;SDS011;74510;42.676;23.432;2024-01-25T00:46:56;14.13;;;10.05;;
84329;SDS011;74510;42.676;23.432;2024-01-25T00:49:21;17.92;;;9.93;;
84329;SDS011;74510;42.676;23.432;2024-01-25T00:51:47;21.15;;;10.32;;
84329;SDS011;74510;42.676;23.432;2024-01-25T00:54:16;29.60;;;14.70;;
84329;SDS011;74510;42.676;23.432;2024-01-25T00:56:42;27.00;;;13.75;;
84329;SDS011;74510;42.676;23.432;2024-01-25T00:59:07;17.02;;;9.50;;
84329;SDS011;74510;42.676;23.432;2024-01-25T01:01:33;20.17;;;11.90;;
84329;SDS011;74510;42.676;23.432;2024-01-25T01:03:59;14.93;;;8.30;;
84329;SDS011;74510;42.676;23.432;2024-01-25T01:06:25;13.55;;;6.88;;
84329;SDS011;74510;42.676;23.432;2024-01-25T01:08:51;19.10;;;10.63;;
84329;SDS011;74510;42.676;23.432;2024-01-25T01:11:16;18.85;;;10.73;;
84329;SDS011;74510;42.676;23.432;2024-01-25T01:13:42;23.50;;;12.63;;
84329;SDS011;74510;42.676;23.432;2024-01-25T01:16:08;21.20;;;10.85;;
84329;SDS011;74510;42.676;23.432;2024-01-25T01:18:33;34.75;;;14.18;;
84329;SDS011;74510;42.676;23.432;2024-01-25T01:20:59;32.80;;;15.02;;
84329;SDS011;74510;42.676;23.432;2024-01-25T01:23:25;28.08;;;13.57;;
84329;SDS011;74510;42.676;23.432;2024-01-25T01:25:50;24.45;;;12.13;;
84329;SDS011;74510;42.676;23.432;2024-01-25T01:28:16;25.20;;;13.05;;
84329;SDS011;74510;42.676;23.432;2024-01-25T01:30:41;24.88;;;11.15;;
84329;SDS011;74510;42.676;23.432;2024-01-25T01:33:10;20.88;;;12.30;;
84329;SDS011;74510;42.676;23.432;2024-01-25T01:35:35;22.98;;;14.02;;
84329;SDS011;74510;42.676;23.432;2024-01-25T01:38:00;26.08;;;13.55;;
84329;SDS011;74510;42.676;23.432;2024-01-25T01:40:26;18.20;;;11.38;;
84329;SDS011;74510;42.676;23.432;2024-01-25T01:42:51;25.55;;;12.52;;
84329;SDS011;74510;42.676;23.432;2024-01-25T01:45:17;31.35;;;13.30;;
84329;SDS011;74510;42.676;23.432;2024-01-25T01:47:42;26.75;;;13.23;;
84329;SDS011;74510;42.676;23.432;2024-01-25T01:50:08;25.95;;;11.85;;
84329;SDS011;74510;42.676;23.432;2024-01-25T01:52:34;19.85;;;9.85;;
84329;SDS011;74510;42.676;23.432;2024-01-25T01:55:00;19.35;;;10.60;;
84329;SDS011;74510;42.676;23.432;2024-01-25T01:57:26;19.35;;;10.27;;
84329;SDS011;74510;42.676;23.432;2024-01-25T01:59:52;21.80;;;10.35;;
84329;SDS011;74510;42.676;23.432;2024-01-25T02:02:17;44.25;;;19.05;;
84329;SDS011;74510;42.676;23.432;2024-01-25T02:04:43;50.13;;;22.55;;
84329;SDS011;74510;42.676;23.432;2024-01-25T02:07:09;44.38;;;19.23;;
84329;SDS011;74510;42.676;23.432;2024-01-25T02:09:34;20.95;;;10.43;;
84329;SDS011;74510;42.676;23.432;2024-01-25T02:12:03;27.48;;;10.80;;
84329;SDS011;74510;42.676;23.432;2024-01-25T02:14:30;21.23;;;9.00;;
84329;SDS011;74510;42.676;23.432;2024-01-25T02:16:56;19.83;;;10.10;;
84329;SDS011;74510;42.676;23.432;2024-01-25T02:19:27;13.02;;;7.38;;
84329;SDS011;74510;42.676;23.432;2024-01-25T02:21:53;13.63;;;6.90;;
84329;SDS011;74510;42.676;23.432;2024-01-25T02:24:19;11.88;;;7.18;;
84329;SDS011;74510;42.676;23.432;2024-01-25T02:26:44;11.38;;;7.18;;
84329;SDS011;74510;42.676;23.432;2024-01-25T02:29:10;13.98;;;7.40;;
84329;SDS011;74510;42.676;23.432;2024-01-25T02:31:35;11.52;;;6.78;;
84329;SDS011;74510;42.676;23.432;2024-01-25T02:34:01;15.82;;;7.70;;
84329;SDS011;74510;42.676;23.432;2024-01-25T02:36:26;14.25;;;7.25;;
84329;SDS011;74510;42.676;23.432;2024-01-25T02:38:51;16.17;;;7.93;;
84329;SDS011;74510;42.676;23.432;2024-01-25T02:41:17;15.52;;;8.68;;
84329;SDS011;74510;42.676;23.432;2024-01-25T02:43:42;20.67;;;10.18;;
84329;SDS011;74510;42.676;23.432;2024-01-25T02:46:08;15.60;;;8.68;;
84329;SDS011;74510;42.676;23.432;2024-01-25T02:48:34;20.08;;;9.88;;
84329;SDS011;74510;42.676;23.432;2024-01-25T02:50:59;16.67;;;9.65;;
84329;SDS011;74510;42.676;23.432;2024-01-25T02:53:25;20.33;;;11.73;;
84329;SDS011;74510;42.676;23.432;2024-01-25T02:55:50;22.00;;;13.98;;
84329;SDS011;74510;42.676;23.432;2024-01-25T02:58:16;23.90;;;12.95;;
84329;SDS011;74510;42.676;23.432;2024-01-25T03:00:41;26.75;;;13.65;;
84329;SDS011;74510;42.676;23.432;2024-01-25T03:03:07;25.02;;;13.23;;
84329;SDS011;74510;42.676;23.432;2024-01-25T03:05:32;24.95;;;13.50;;
84329;SDS011;74510;42.676;23.432;2024-01-25T03:07:59;23.05;;;13.20;;
84329;SDS011;74510;42.676;23.432;2024-01-25T03:10:25;22.83;;;12.65;;
84329;SDS011;74510;42.676;23.432;2024-01-25T03:12:50;21.52;;;12.13;;
84329;SDS011;74510;42.676;23.432;2024-01-25T03:15:16;22.55;;;12.88;;
84329;SDS011;74510;42.676;23.432;2024-01-25T03:17:41;24.50;;;12.10;;
84329;SDS011;74510;42.676;23.432;2024-01-25T03:20:07;20.98;;;11.75;;
84329;SDS011;74510;42.676;23.432;2024-01-25T03:22:32;19.73;;;11.25;;
84329;SDS011;74510;42.676;23.432;2024-01-25T03:24:58;26.67;;;13.40;;
84329;SDS011;74510;42.676;23.432;2024-01-25T03:27:23;23.20;;;11.98;;
84329;SDS011;74510;42.676;23.432;2024-01-25T03:29:48;23.77;;;12.80;;
84329;SDS011;74510;42.676;23.432;2024-01-25T03:32:23;20.85;;;12.93;;
84329;SDS011;74510;42.676;23.432;2024-01-25T03:34:48;21.10;;;11.02;;
84329;SDS011;74510;42.676;23.432;2024-01-25T03:37:14;22.83;;;13.15;;
84329;SDS011;74510;42.676;23.432;2024-01-25T03:39:39;21.25;;;11.52;;
84329;SDS011;74510;42.676;23.432;2024-01-25T03:42:04;30.52;;;14.85;;
84329;SDS011;74510;42.676;23.432;2024-01-25T03:44:30;33.72;;;16.15;;
84329;SDS011;74510;42.676;23.432;2024-01-25T03:46:56;25.90;;;14.50;;
84329;SDS011;74510;42.676;23.432;2024-01-25T03:49:21;30.30;;;13.77;;
84329;SDS011;74510;42.676;23.432;2024-01-25T03:51:48;29.23;;;13.80;;
84329;SDS011;74510;42.676;23.432;2024-01-25T03:54:13;23.02;;;11.75;;
84329;SDS011;74510;42.676;23.432;2024-01-25T03:56:39;17.52;;;10.20;;
84329;SDS011;74510;42.676;23.432;2024-01-25T03:59:04;27.75;;;13.27;;
84329;SDS011;74510;42.676;23.432;2024-01-25T04:01:40;32.80;;;13.48;;
84329;SDS011;74510;42.676;23.432;2024-01-25T04:04:06;15.40;;;7.40;;
84329;SDS011;74510;42.676;23.432;2024-01-25T04:06:34;21.27;;;10.50;;
84329;SDS011;74510;42.676;23.432;2024-01-25T04:08:59;28.17;;;14.05;;
84329;SDS011;74510;42.676;23.432;2024-01-25T04:11:25;20.80;;;9.13;;
84329;SDS011;74510;42.676;23.432;2024-01-25T04:13:50;24.42;;;11.82;;
84329;SDS011;74510;42.676;23.432;2024-01-25T04:16:15;33.15;;;14.45;;
84329;SDS011;74510;42.676;23.432;2024-01-25T04:18:41;17.52;;;8.75;;
84329;SDS011;74510;42.676;23.432;2024-01-25T04:21:06;10.70;;;6.72;;
84329;SDS011;74510;42.676;23.432;2024-01-25T04:23:32;6.68;;;3.10;;
84329;SDS011;74510;42.676;23.432;2024-01-25T04:25:57;4.88;;;3.15;;
84329;SDS011;74510;42.676;23.432;2024-01-25T04:28:23;6.88;;;3.03;;
84329;SDS011;74510;42.676;23.432;2024-01-25T04:30:48;4.70;;;2.70;;
84329;SDS011;74510;42.676;23.432;2024-01-25T04:33:13;5.43;;;2.85;;
84329;SDS011;74510;42.676;23.432;2024-01-25T04:35:39;4.00;;;2.42;;
84329;SDS011;74510;42.676;23.432;2024-01-25T04:38:04;4.88;;;3.00;;
84329;SDS011;74510;42.676;23.432;2024-01-25T04:40:29;6.40;;;3.28;;
84329;SDS011;74510;42.676;23.432;2024-01-25T04:42:55;4.03;;;2.72;;
84329;SDS011;74510;42.676;23.432;2024-01-25T04:45:20;4.80;;;3.10;;
84329;SDS011;74510;42.676;23.432;2024-01-25T04:47:46;7.40;;;3.33;;
84329;SDS011;74510;42.676;23.432;2024-01-25T04:50:11;5.20;;;3.95;;
84329;SDS011;74510;42.676;23.432;2024-01-25T04:52:37;6.43;;;2.97;;
84329;SDS011;74510;42.676;23.432;2024-01-25T04:55:02;5.13;;;3.38;;
84329;SDS011;74510;42.676;23.432;2024-01-25T04:57:27;5.95;;;3.55;;
84329;SDS011;74510;42.676;23.432;2024-01-25T04:59:53;6.93;;;3.60;;
84329;SDS011;74510;42.676;23.432;2024-01-25T05:02:18;6.63;;;3.85;;
84329;SDS011;74510;42.676;23.432;2024-01-25T05:04:44;7.57;;;3.63;;
84329;SDS011;74510;42.676;23.432;2024-01-25T05:07:09;7.93;;;3.97;;
84329;SDS011;74510;42.676;23.432;2024-01-25T05:09:35;8.48;;;4.13;;
84329;SDS011;74510;42.676;23.432;2024-01-25T05:12:00;6.15;;;3.78;;
84329;SDS011;74510;42.676;23.432;2024-01-25T05:14:27;5.72;;;3.85;;
84329;SDS011;74510;42.676;23.432;2024-01-25T05:16:52;5.30;;;3.15;;
84329;SDS011;74510;42.676;23.432;2024-01-25T05:19:18;10.50;;;5.03;;
84329;SDS011;74510;42.676;23.432;2024-01-25T05:21:43;24.17;;;10.30;;
84329;SDS011;74510;42.676;23.432;2024-01-25T05:24:08;17.02;;;6.25;;
84329;SDS011;74510;42.676;23.432;2024-01-25T05:26:35;9.82;;;5.30;;
84329;SDS011;74510;42.676;23.432;2024-01-25T05:29:00;5.60;;;2.72;;
84329;SDS011;74510;42.676;23.432;2024-01-25T05:31:26;10.55;;;4.38;;
84329;SDS011;74510;42.676;23.432;2024-01-25T05:33:51;7.55;;;2.97;;
84329;SDS011;74510;42.676;23.432;2024-01-25T05:36:17;4.97;;;3.70;;
84329;SDS011;74510;42.676;23.432;2024-01-25T05:38:42;7.88;;;4.07;;
84329;SDS011;74510;42.676;23.432;2024-01-25T05:41:08;6.20;;;2.88;;
84329;SDS011;74510;42.676;23.432;2024-01-25T05:43:33;5.13;;;2.55;;
84329;SDS011;74510;42.676;23.432;2024-01-25T05:45:58;6.18;;;3.30;;
84329;SDS011;74510;42.676;23.432;2024-01-25T05:48:24;6.65;;;2.70;;
84329;SDS011;74510;42.676;23.432;2024-01-25T05:50:49;5.32;;;2.05;;
84329;SDS011;74510;42.676;23.432;2024-01-25T05:53:15;6.20;;;2.33;;
84329;SDS011;74510;42.676;23.432;2024-01-25T05:55:44;4.85;;;2.78;;
84329;SDS011;74510;42.676;23.432;2024-01-25T05:58:09;7.22;;;2.17;;
84329;SDS011;74510;42.676;23.432;2024-01-25T06:00:34;5.55;;;2.65;;
84329;SDS011;74510;42.676;23.432;2024-01-25T06:03:00;6.82;;;2.72;;
84329;SDS011;74510;42.676;23.432;2024-01-25T06:05:25;5.88;;;2.50;;
84329;SDS011;74510;42.676;23.432;2024-01-25T06:07:51;6.32;;;2.00;;
84329;SDS011;74510;42.676;23.432;2024-01-25T06:10:16;3.55;;;1.95;;
84329;SDS011;74510;42.676;23.432;2024-01-25T06:12:42;2.88;;;1.65;;
84329;SDS011;74510;42.676;23.432;2024-01-25T06:15:07;7.00;;;4.00;;
84329;SDS011;74510;42.676;23.432;2024-01-25T06:17:33;4.95;;;2.08;;
84329;SDS011;74510;42.676;23.432;2024-01-25T06:19:59;4.63;;;2.08;;
84329;SDS011;74510;42.676;23.432;2024-01-25T06:22:24;7.45;;;3.92;;
84329;SDS011;74510;42.676;23.432;2024-01-25T06:24:50;8.02;;;2.38;;
84329;SDS011;74510;42.676;23.432;2024-01-25T06:27:15;5.13;;;2.55;;
84329;SDS011;74510;42.676;23.432;2024-01-25T06:29:40;9.10;;;3.78;;
84329;SDS011;74510;42.676;23.432;2024-01-25T06:32:06;5.65;;;3.03;;
84329;SDS011;74510;42.676;23.432;2024-01-25T06:34:31;7.18;;;2.45;;
84329;SDS011;74510;42.676;23.432;2024-01-25T06:36:57;5.05;;;2.45;;
84329;SDS011;74510;42.676;23.432;2024-01-25T06:39:22;5.53;;;3.40;;
84329;SDS011;74510;42.676;23.432;2024-01-25T06:41:48;6.00;;;3.83;;
84329;SDS011;74510;42.676;23.432;2024-01-25T06:44:13;5.85;;;4.32;;
84329;SDS011;74510;42.676;23.432;2024-01-25T06:46:38;5.20;;;3.30;;
84329;SDS011;74510;42.676;23.432;2024-01-25T06:49:04;5.40;;;2.50;;
84329;SDS011;74510;42.676;23.432;2024-01-25T06:51:29;3.97;;;2.55;;
84329;SDS011;74510;42.676;23.432;2024-01-25T06:53:55;6.32;;;3.67;;
84329;SDS011;74510;42.676;23.432;2024-01-25T06:56:20;6.38;;;2.95;;
84329;SDS011;74510;42.676;23.432;2024-01-25T06:58:46;3.80;;;2.53;;
84329;SDS011;74510;42.676;23.432;2024-01-25T07:01:11;6.25;;;3.30;;
84329;SDS011;74510;42.676;23.432;2024-01-25T07:03:37;9.20;;;3.75;;
84329;SDS011;74510;42.676;23.432;2024-01-25T07:06:03;10.05;;;3.53;;
84329;SDS011;74510;42.676;23.432;2024-01-25T07:08:29;3.00;;;2.15;;
84329;SDS011;74510;42.676;23.432;2024-01-25T07:10:54;18.63;;;8.05;;
84329;SDS011;74510;42.676;23.432;2024-01-25T07:13:20;30.35;;;13.25;;
84329;SDS011;74510;42.676;23.432;2024-01-25T07:15:47;17.55;;;7.53;;
84329;SDS011;74510;42.676;23.432;2024-01-25T07:18:12;9.27;;;4.45;;
84329;SDS011;74510;42.676;23.432;2024-01-25T07:20:38;5.35;;;2.80;;
84329;SDS011;74510;42.676;23.432;2024-01-25T07:23:03;8.68;;;4.50;;
84329;SDS011;74510;42.676;23.432;2024-01-25T07:25:29;8.98;;;4.13;;
84329;SDS011;74510;42.676;23.432;2024-01-25T07:27:54;6.97;;;3.15;;
84329;SDS011;74510;42.676;23.432;2024-01-25T07:30:19;7.07;;;3.92;;
84329;SDS011;74510;42.676;23.432;2024-01-25T07:32:45;5.75;;;3.10;;
84329;SDS011;74510;42.676;23.432;2024-01-25T07:35:11;4.25;;;2.58;;
84329;SDS011;74510;42.676;23.432;2024-01-25T07:37:38;6.80;;;2.67;;
84329;SDS011;74510;42.676;23.432;2024-01-25T07:42:31;6.07;;;2.53;;
84329;SDS011;74510;42.676;23.432;2024-01-25T07:44:57;4.55;;;2.50;;
84329;SDS011;74510;42.676;23.432;2024-01-25T07:47:22;4.47;;;2.42;;
84329;SDS011;74510;42.676;23.432;2024-01-25T07:49:48;4.82;;;2.67;;
84329;SDS011;74510;42.676;23.432;2024-01-25T07:52:14;5.47;;;2.75;;
84329;SDS011;74510;42.676;23.432;2024-01-25T07:54:39;4.30;;;2.38;;
84329;SDS011;74510;42.676;23.432;2024-01-25T07:57:05;8.82;;;2.67;;
84329;SDS011;74510;42.676;23.432;2024-01-25T07:59:30;8.85;;;3.65;;
84329;SDS011;74510;42.676;23.432;2024-01-25T08:01:55;6.00;;;3.08;;
84329;SDS011;74510;42.676;23.432;2024-01-25T08:04:21;7.85;;;4.10;;
84329;SDS011;74510;42.676;23.432;2024-01-25T08:06:46;6.93;;;3.20;;
84329;SDS011;74510;42.676;23.432;2024-01-25T08:09:12;8.85;;;3.38;;
84329;SDS011;74510;42.676;23.432;2024-01-25T08:11:37;13.95;;;6.72;;
84329;SDS011;74510;42.676;23.432;2024-01-25T08:14:03;12.30;;;5.60;;
84329;SDS011;74510;42.676;23.432;2024-01-25T08:16:28;7.15;;;3.50;;
84329;SDS011;74510;42.676;23.432;2024-01-25T08:18:54;6.45;;;3.85;;
84329;SDS011;74510;42.676;23.432;2024-01-25T08:21:19;11.73;;;4.78;;
84329;SDS011;74510;42.676;23.432;2024-01-25T08:23:45;10.20;;;3.72;;
84329;SDS011;74510;42.676;23.432;2024-01-25T08:26:10;9.73;;;4.68;;
84329;SDS011;74510;42.676;23.432;2024-01-25T08:28:40;11.27;;;5.45;;
84329;SDS011;74510;42.676;23.432;2024-01-25T08:31:06;15.48;;;6.47;;
84329;SDS011;74510;42.676;23.432;2024-01-25T08:33:32;14.23;;;6.70;;
84329;SDS011;74510;42.676;23.432;2024-01-25T08:36:02;8.85;;;4.32;;
84329;SDS011;74510;42.676;23.432;2024-01-25T08:38:28;8.63;;;4.57;;
84329;SDS011;74510;42.676;23.432;2024-01-25T08:40:53;13.60;;;5.05;;
84329;SDS011;74510;42.676;23.432;2024-01-25T08:43:19;7.68;;;3.83;;
84329;SDS011;74510;42.676;23.432;2024-01-25T08:45:44;10.48;;;4.30;;
84329;SDS011;74510;42.676;23.432;2024-01-25T08:48:09;10.70;;;5.03;;
84329;SDS011;74510;42.676;23.432;2024-01-25T08:50:35;15.15;;;6.55;;
84329;SDS011;74510;42.676;23.432;2024-01-25T08:53:01;24.70;;;10.10;;
84329;SDS011;74510;42.676;23.432;2024-01-25T08:55:27;28.92;;;9.65;;
84329;SDS011;74510;42.676;23.432;2024-01-25T08:57:52;17.77;;;6.57;;
84329;SDS011;74510;42.676;23.432;2024-01-25T09:00:18;11.88;;;5.53;;
84329;SDS011;74510;42.676;23.432;2024-01-25T09:02:43;12.93;;;5.15;;
84329;SDS011;74510;42.676;23.432;2024-01-25T09:05:09;4.80;;;2.85;;
84329;SDS011;74510;42.676;23.432;2024-01-25T09:07:35;12.05;;;5.68;;
84329;SDS011;74510;42.676;23.432;2024-01-25T09:10:01;5.65;;;3.72;;
84329;SDS011;74510;42.676;23.432;2024-01-25T09:12:26;13.23;;;5.53;;
84329;SDS011;74510;42.676;23.432;2024-01-25T09:14:52;11.70;;;4.75;;
84329;SDS011;74510;42.676;23.432;2024-01-25T09:17:17;11.93;;;4.53;;
84329;SDS011;74510;42.676;23.432;2024-01-25T09:19:50;6.82;;;2.88;;
84329;SDS011;74510;42.676;23.432;2024-01-25T09:22:18;9.38;;;4.30;;
84329;SDS011;74510;42.676;23.432;2024-01-25T09:24:47;8.82;;;4.38;;
84329;SDS011;74510;42.676;23.432;2024-01-25T09:27:13;7.57;;;2.85;;
84329;SDS011;74510;42.676;23.432;2024-01-25T09:29:39;9.70;;;3.72;;
84329;SDS011;74510;42.676;23.432;2024-01-25T09:32:06;12.30;;;4.72;;
84329;SDS011;74510;42.676;23.432;2024-01-25T09:34:33;16.75;;;5.78;;
84329;SDS011;74510;42.676;23.432;2024-01-25T09:36:59;14.43;;;5.43;;
84329;SDS011;74510;42.676;23.432;2024-01-25T09:39:24;19.83;;;8.38;;
84329;SDS011;74510;42.676;23.432;2024-01-25T09:41:49;12.05;;;3.45;;
84329;SDS011;74510;42.676;23.432;2024-01-25T09:44:15;15.60;;;5.63;;
84329;SDS011;74510;42.676;23.432;2024-01-25T09:46:42;21.13;;;7.82;;
84329;SDS011;74510;42.676;23.432;2024-01-25T09:49:09;18.80;;;6.93;;
84329;SDS011;74510;42.676;23.432;2024-01-25T09:51:36;5.75;;;3.72;;
84329;SDS011;74510;42.676;23.432;2024-01-25T09:54:03;24.95;;;14.02;;
84329;SDS011;74510;42.676;23.432;2024-01-25T09:56:31;7.40;;;4.53;;
84329;SDS011;74510;42.676;23.432;2024-01-25T09:58:57;30.73;;;18.30;;
84329;SDS011;74510;42.676;23.432;2024-01-25T10:01:23;16.63;;;8.30;;
84329;SDS011;74510;42.676;23.432;2024-01-25T10:03:48;12.27;;;5.15;;
84329;SDS011;74510;42.676;23.432;2024-01-25T10:06:14;10.63;;;3.55;;
84329;SDS011;74510;42.676;23.432;2024-01-25T10:08:41;10.00;;;3.80;;
84329;SDS011;74510;42.676;23.432;2024-01-25T10:11:07;16.67;;;6.65;;
84329;SDS011;74510;42.676;23.432;2024-01-25T10:13:39;9.38;;;4.35;;
84329;SDS011;74510;42.676;23.432;2024-01-25T10:16:19;13.93;;;6.72;;
84329;SDS011;74510;42.676;23.432;2024-01-25T10:18:47;13.70;;;5.47;;
84329;SDS011;74510;42.676;23.432;2024-01-25T10:21:14;7.22;;;3.63;;
84329;SDS011;74510;42.676;23.432;2024-01-25T10:23:40;12.13;;;5.60;;
84329;SDS011;74510;42.676;23.432;2024-01-25T10:26:07;12.37;;;4.47;;
84329;SDS011;74510;42.676;23.432;2024-01-25T10:28:33;9.77;;;5.45;;
84329;SDS011;74510;42.676;23.432;2024-01-25T10:31:02;5.82;;;3.13;;
84329;SDS011;74510;42.676;23.432;2024-01-25T10:33:32;6.75;;;3.47;;
84329;SDS011;74510;42.676;23.432;2024-01-25T10:35:58;9.15;;;4.45;;
84329;SDS011;74510;42.676;23.432;2024-01-25T10:38:28;13.43;;;5.47;;
84329;SDS011;74510;42.676;23.432;2024-01-25T10:41:00;8.57;;;4.30;;
84329;SDS011;74510;42.676;23.432;2024-01-25T10:43:27;8.00;;;4.25;;
84329;SDS011;74510;42.676;23.432;2024-01-25T10:45:53;9.23;;;3.78;;
84329;SDS011;74510;42.676;23.432;2024-01-25T10:48:22;8.02;;;4.25;;
84329;SDS011;74510;42.676;23.432;2024-01-25T10:50:48;11.90;;;6.80;;
84329;SDS011;74510;42.676;23.432;2024-01-25T10:53:14;9.00;;;4.60;;
84329;SDS011;74510;42.676;23.432;2024-01-25T10:55:41;13.80;;;8.50;;
84329;SDS011;74510;42.676;23.432;2024-01-25T10:58:07;9.85;;;5.10;;
84329;SDS011;74510;42.676;23.432;2024-01-25T11:00:33;6.00;;;3.70;;
84329;SDS011;74510;42.676;23.432;2024-01-25T11:03:00;5.18;;;2.42;;
84329;SDS011;74510;42.676;23.432;2024-01-25T11:05:26;4.68;;;3.22;;
84329;SDS011;74510;42.676;23.432;2024-01-25T11:07:52;6.28;;;3.85;;
84329;SDS011;74510;42.676;23.432;2024-01-25T11:10:18;8.85;;;3.65;;
84329;SDS011;74510;42.676;23.432;2024-01-25T11:12:58;10.15;;;4.57;;
84329;SDS011;74510;42.676;23.432;2024-01-25T11:15:31;11.63;;;5.47;;
84329;SDS011;74510;42.676;23.432;2024-01-25T11:17:57;8.40;;;3.53;;
84329;SDS011;74510;42.676;23.432;2024-01-25T11:20:24;13.23;;;6.65;;
84329;SDS011;74510;42.676;23.432;2024-01-25T11:22:57;10.43;;;5.35;;
84329;SDS011;74510;42.676;23.432;2024-01-25T11:25:33;12.18;;;6.78;;
84329;SDS011;74510;42.676;23.432;2024-01-25T11:28:00;8.65;;;4.53;;
84329;SDS011;74510;42.676;23.432;2024-01-25T11:30:27;8.45;;;5.80;;
84329;SDS011;74510;42.676;23.432;2024-01-25T11:32:54;14.40;;;8.02;;
84329;SDS011;74510;42.676;23.432;2024-01-25T11:35:20;20.67;;;9.57;;
84329;SDS011;74510;42.676;23.432;2024-01-25T11:37:47;26.30;;;13.95;;
84329;SDS011;74510;42.676;23.432;2024-01-25T11:40:14;16.92;;;8.35;;
84329;SDS011;74510;42.676;23.432;2024-01-25T11:42:46;14.85;;;8.30;;
84329;SDS011;74510;42.676;23.432;2024-01-25T11:45:13;24.88;;;12.73;;
84329;SDS011;74510;42.676;23.432;2024-01-25T11:47:39;29.13;;;13.27;;
84329;SDS011;74510;42.676;23.432;2024-01-25T11:50:06;29.30;;;12.65;;
84329;SDS011;74510;42.676;23.432;2024-01-25T11:52:33;22.00;;;7.00;;
84329;SDS011;74510;42.676;23.432;2024-01-25T11:55:02;11.75;;;6.00;;
84329;SDS011;74510;42.676;23.432;2024-01-25T11:57:32;17.40;;;6.47;;
84329;SDS011;74510;42.676;23.432;2024-01-25T12:00:01;11.73;;;6.43;;
84329;SDS011;74510;42.676;23.432;2024-01-25T12:02:29;18.92;;;8.48;;
84329;SDS011;74510;42.676;23.432;2024-01-25T12:04:56;23.58;;;13.13;;
84329;SDS011;74510;42.676;23.432;2024-01-25T12:07:22;35.25;;;16.40;;
84329;SDS011;74510;42.676;23.432;2024-01-25T12:12:43;19.65;;;10.80;;
84329;SDS011;74510;42.676;23.432;2024-01-25T12:15:08;29.55;;;16.17;;
84329;SDS011;74510;42.676;23.432;2024-01-25T12:17:34;8.77;;;3.83;;
84329;SDS011;74510;42.676;23.432;2024-01-25T12:20:04;28.05;;;13.90;;
84329;SDS011;74510;42.676;23.432;2024-01-25T12:22:35;14.60;;;8.63;;
84329;SDS011;74510;42.676;23.432;2024-01-25T12:25:02;21.23;;;11.30;;
84329;SDS011;74510;42.676;23.432;2024-01-25T12:27:28;7.05;;;4.38;;
84329;SDS011;74510;42.676;23.432;2024-01-25T12:29:55;9.18;;;4.80;;
84329;SDS011;74510;42.676;23.432;2024-01-25T12:32:21;5.95;;;3.33;;
84329;SDS011;74510;42.676;23.432;2024-01-25T12:34:56;17.83;;;8.40;;
84329;SDS011;74510;42.676;23.432;2024-01-25T12:37:25;14.07;;;5.78;;
84329;SDS011;74510;42.676;23.432;2024-01-25T12:39:51;16.95;;;9.02;;
84329;SDS011;74510;42.676;23.432;2024-01-25T12:42:17;12.23;;;5.95;;
84329;SDS011;74510;42.676;23.432;2024-01-25T12:44:43;8.88;;;4.13;;
84329;SDS011;74510;42.676;23.432;2024-01-25T12:47:08;12.20;;;4.70;;
84329;SDS011;74510;42.676;23.432;2024-01-25T12:49:33;11.38;;;5.90;;
84329;SDS011;74510;42.676;23.432;2024-01-25T12:51:59;7.70;;;3.20;;
84329;SDS011;74510;42.676;23.432;2024-01-25T12:54:25;5.55;;;3.58;;
84329;SDS011;74510;42.676;23.432;2024-01-25T12:56:51;8.85;;;3.35;;
84329;SDS011;74510;42.676;23.432;2024-01-25T12:59:16;6.95;;;3.92;;
84329;SDS011;74510;42.676;23.432;2024-01-25T13:01:42;8.30;;;4.18;;
84329;SDS011;74510;42.676;23.432;2024-01-25T13:04:07;9.07;;;4.47;;
84329;SDS011;74510;42.676;23.432;2024-01-25T13:06:33;11.30;;;4.43;;
84329;SDS011;74510;42.676;23.432;2024-01-25T13:08:58;8.95;;;4.55;;
84329;SDS011;74510;42.676;23.432;2024-01-25T13:11:24;6.45;;;2.92;;
84329;SDS011;74510;42.676;23.432;2024-01-25T13:13:49;6.50;;;3.60;;
84329;SDS011;74510;42.676;23.432;2024-01-25T13:16:16;5.93;;;2.90;;
84329;SDS011;74510;42.676;23.432;2024-01-25T13:18:42;6.35;;;3.13;;
84329;SDS011;74510;42.676;23.432;2024-01-25T13:21:07;3.40;;;2.42;;
84329;SDS011;74510;42.676;23.432;2024-01-25T13:23:33;4.88;;;2.33;;
84329;SDS011;74510;42.676;23.432;2024-01-25T13:25:58;9.75;;;4.38;;
84329;SDS011;74510;42.676;23.432;2024-01-25T13:28:23;11.60;;;4.40;;
84329;SDS011;74510;42.676;23.432;2024-01-25T13:30:49;9.20;;;2.55;;
84329;SDS011;74510;42.676;23.432;2024-01-25T13:33:14;8.38;;;3.75;;
84329;SDS011;74510;42.676;23.432;2024-01-25T13:35:39;7.03;;;3.72;;
84329;SDS011;74510;42.676;23.432;2024-01-25T13:38:05;10.25;;;4.30;;
84329;SDS011;74510;42.676;23.432;2024-01-25T13:40:30;11.10;;;4.18;;
84329;SDS011;74510;42.676;23.432;2024-01-25T13:42:56;7.28;;;3.13;;
84329;SDS011;74510;42.676;23.432;2024-01-25T13:45:21;7.63;;;2.67;;
84329;SDS011;74510;42.676;23.432;2024-01-25T13:47:47;10.30;;;3.85;;
84329;SDS011;74510;42.676;23.432;2024-01-25T13:50:12;5.32;;;2.70;;
84329;SDS011;74510;42.676;23.432;2024-01-25T13:52:38;11.35;;;3.92;;
84329;SDS011;74510;42.676;23.432;2024-01-25T13:55:03;10.55;;;4.32;;
84329;SDS011;74510;42.676;23.432;2024-01-25T13:57:29;9.60;;;4.57;;
84329;SDS011;74510;42.676;23.432;2024-01-25T13:59:54;14.60;;;5.80;;
84329;SDS011;74510;42.676;23.432;2024-01-25T14:02:20;8.98;;;3.60;;
84329;SDS011;74510;42.676;23.432;2024-01-25T14:04:45;11.63;;;4.90;;
84329;SDS011;74510;42.676;23.432;2024-01-25T14:07:11;11.52;;;4.00;;
84329;SDS011;74510;42.676;23.432;2024-01-25T14:09:38;14.43;;;4.50;;
84329;SDS011;74510;42.676;23.432;2024-01-25T14:12:06;10.55;;;4.57;;
84329;SDS011;74510;42.676;23.432;2024-01-25T14:14:31;12.10;;;6.20;;
84329;SDS011;74510;42.676;23.432;2024-01-25T14:16:57;18.35;;;4.90;;
84329;SDS011;74510;42.676;23.432;2024-01-25T14:19:22;11.70;;;5.30;;
84329;SDS011;74510;42.676;23.432;2024-01-25T14:21:47;12.68;;;5.18;;